sensor_id;sensor_type;location;lat;lon;timestamp;pressure;altitude;pressure_sealevel;temperature;humidity
21821;BME280;11073;48.586;12.066;2023-06-14T00:01:28;96019.91;;;18.36;40.84
21821;BME280;11073;48.586;12.066;2023-06-14T00:03:57;96004.59;;;18.35;40.93
21821;BME280;11073;48.586;12.066;2023-06-14T00:06:28;96007.72;;;18.28;41.01
21821;BME280;11073;48.586;12.066;2023-06-14T00:08:58;96009.72;;;18.23;40.95
21821;BME280;11073;48.586;12.066;2023-06-14T00:11:27;96009.72;;;18.23;40.99
21821;BME280;11073;48.586;12.066;2023-06-14T00:13:58;96006.47;;;18.21;41.00
21821;BME280;11073;48.586;12.066;2023-06-14T00:16:27;96012.50;;;18.17;41.10
21821;BME280;11073;48.586;12.066;2023-06-14T00:18:55;96006.00;;;18.13;41.07
21821;BME280;11073;48.586;12.066;2023-06-14T00:21:25;96005.88;;;18.05;41.18
21821;BME280;11073;48.586;12.066;2023-06-14T00:23:59;96000.63;;;17.89;41.36
21821;BME280;11073;48.586;12.066;2023-06-14T00:26:28;95996.03;;;17.85;41.66
21821;BME280;11073;48.586;12.066;2023-06-14T00:28:56;95998.81;;;17.80;41.68
21821;BME280;11073;48.586;12.066;2023-06-14T00:31:26;95995.94;;;17.71;41.74
21821;BME280;11073;48.586;12.066;2023-06-14T00:33:55;95999.50;;;17.67;41.99
21821;BME280;11073;48.586;12.066;2023-06-14T00:36:24;95996.78;;;17.67;42.08
21821;BME280;11073;48.586;12.066;2023-06-14T00:38:53;95992.19;;;17.62;41.90
21821;BME280;11073;48.586;12.066;2023-06-14T00:41:23;95992.06;;;17.53;42.19
21821;BME280;11073;48.586;12.066;2023-06-14T00:43:52;95996.41;;;17.54;42.31
21821;BME280;11073;48.586;12.066;2023-06-14T00:46:24;95998.38;;;17.49;42.22
21821;BME280;11073;48.586;12.066;2023-06-14T00:48:55;95994.94;;;17.38;42.29
21821;BME280;11073;48.586;12.066;2023-06-14T00:51:24;95993.41;;;17.32;42.55
21821;BME280;11073;48.586;12.066;2023-06-14T00:53:54;95995.53;;;17.35;42.57
21821;BME280;11073;48.586;12.066;2023-06-14T00:56:25;95987.94;;;17.32;42.76
21821;BME280;11073;48.586;12.066;2023-06-14T00:58:55;95996.41;;;17.30;42.80
21821;BME280;11073;48.586;12.066;2023-06-14T01:01:25;95992.66;;;17.26;42.82
21821;BME280;11073;48.586;12.066;2023-06-14T01:03:54;95995.13;;;17.23;42.89
21821;BME280;11073;48.586;12.066;2023-06-14T01:06:35;95995.69;;;17.25;42.97
21821;BME280;11073;48.586;12.066;2023-06-14T01:09:15;95997.34;;;17.21;42.92
21821;BME280;11073;48.586;12.066;2023-06-14T01:11:54;95990.00;;;17.16;43.10
21821;BME280;11073;48.586;12.066;2023-06-14T01:14:28;95998.34;;;17.06;43.08
21821;BME280;11073;48.586;12.066;2023-06-14T01:16:59;95997.06;;;16.98;43.24
21821;BME280;11073;48.586;12.066;2023-06-14T01:19:28;95997.00;;;17.03;43.59
21821;BME280;11073;48.586;12.066;2023-06-14T01:22:00;96002.22;;;17.00;43.40
21821;BME280;11073;48.586;12.066;2023-06-14T01:24:31;95989.16;;;16.97;43.48
21821;BME280;11073;48.586;12.066;2023-06-14T01:27:02;95985.47;;;16.83;43.51
21821;BME280;11073;48.586;12.066;2023-06-14T01:29:32;95991.50;;;16.79;43.57
21821;BME280;11073;48.586;12.066;2023-06-14T01:32:01;95987.44;;;16.77;43.78
21821;BME280;11073;48.586;12.066;2023-06-14T01:34:30;95996.78;;;16.71;43.67
21821;BME280;11073;48.586;12.066;2023-06-14T01:37:01;95992.44;;;16.65;43.76
21821;BME280;11073;48.586;12.066;2023-06-14T01:39:33;95994.34;;;16.64;43.88
21821;BME280;11073;48.586;12.066;2023-06-14T01:42:02;95992.44;;;16.70;43.83
21821;BME280;11073;48.586;12.066;2023-06-14T01:44:32;95989.94;;;16.73;43.97
21821;BME280;11073;48.586;12.066;2023-06-14T01:47:01;95998.38;;;16.77;43.91
21821;BME280;11073;48.586;12.066;2023-06-14T01:49:33;95996.13;;;16.84;43.67
21821;BME280;11073;48.586;12.066;2023-06-14T01:52:02;95987.72;;;16.75;43.77
21821;BME280;11073;48.586;12.066;2023-06-14T01:54:30;95987.22;;;16.68;43.75
21821;BME280;11073;48.586;12.066;2023-06-14T01:57:00;95995.28;;;16.54;44.06
21821;BME280;11073;48.586;12.066;2023-06-14T01:59:29;95997.53;;;16.47;44.05
21821;BME280;11073;48.586;12.066;2023-06-14T02:01:58;95991.88;;;16.39;44.22
21821;BME280;11073;48.586;12.066;2023-06-14T02:04:28;95996.03;;;16.31;44.43
21821;BME280;11073;48.586;12.066;2023-06-14T02:06:57;96001.28;;;16.22;44.51
21821;BME280;11073;48.586;12.066;2023-06-14T02:09:25;95997.22;;;16.15;44.76
21821;BME280;11073;48.586;12.066;2023-06-14T02:11:54;95993.44;;;16.11;45.04
21821;BME280;11073;48.586;12.066;2023-06-14T02:14:25;95985.25;;;16.11;44.84
21821;BME280;11073;48.586;12.066;2023-06-14T02:16:54;95998.63;;;16.12;44.93
21821;BME280;11073;48.586;12.066;2023-06-14T02:19:24;95992.59;;;16.15;45.05
21821;BME280;11073;48.586;12.066;2023-06-14T02:21:54;95978.47;;;16.08;44.91
21821;BME280;11073;48.586;12.066;2023-06-14T02:24:23;95979.03;;;16.00;45.06
21821;BME280;11073;48.586;12.066;2023-06-14T02:26:52;96000.88;;;16.00;45.28
21821;BME280;11073;48.586;12.066;2023-06-14T02:29:22;96000.63;;;15.96;45.25
21821;BME280;11073;48.586;12.066;2023-06-14T02:31:52;95996.56;;;15.94;45.00
21821;BME280;11073;48.586;12.066;2023-06-14T02:34:21;95989.81;;;15.86;45.31
21821;BME280;11073;48.586;12.066;2023-06-14T02:36:50;96001.44;;;15.97;45.13
21821;BME280;11073;48.586;12.066;2023-06-14T02:39:20;95994.41;;;15.91;45.31
21821;BME280;11073;48.586;12.066;2023-06-14T02:41:50;96001.25;;;15.83;45.17
21821;BME280;11073;48.586;12.066;2023-06-14T02:44:24;95991.19;;;15.79;45.42
21821;BME280;11073;48.586;12.066;2023-06-14T02:46:54;95995.88;;;15.73;45.47
21821;BME280;11073;48.586;12.066;2023-06-14T02:49:23;95995.06;;;15.73;45.73
21821;BME280;11073;48.586;12.066;2023-06-14T02:51:52;95998.91;;;15.66;45.80
21821;BME280;11073;48.586;12.066;2023-06-14T02:54:21;95999.75;;;15.62;45.63
21821;BME280;11073;48.586;12.066;2023-06-14T02:56:51;95992.91;;;15.59;45.70
21821;BME280;11073;48.586;12.066;2023-06-14T02:59:22;95999.78;;;15.52;45.75
21821;BME280;11073;48.586;12.066;2023-06-14T03:01:55;95995.16;;;15.42;45.88
21821;BME280;11073;48.586;12.066;2023-06-14T03:04:24;95999.28;;;15.44;46.08
21821;BME280;11073;48.586;12.066;2023-06-14T03:06:54;96000.09;;;15.45;46.13
21821;BME280;11073;48.586;12.066;2023-06-14T03:09:23;95997.94;;;15.37;46.30
21821;BME280;11073;48.586;12.066;2023-06-14T03:11:53;95994.94;;;15.33;46.30
21821;BME280;11073;48.586;12.066;2023-06-14T03:14:21;96000.09;;;15.35;46.63
21821;BME280;11073;48.586;12.066;2023-06-14T03:16:50;95991.69;;;15.26;46.51
21821;BME280;11073;48.586;12.066;2023-06-14T03:19:25;96003.72;;;15.20;46.84
21821;BME280;11073;48.586;12.066;2023-06-14T03:21:55;95997.75;;;15.13;46.64
21821;BME280;11073;48.586;12.066;2023-06-14T03:24:27;96011.34;;;15.23;46.83
21821;BME280;11073;48.586;12.066;2023-06-14T03:26:58;96014.38;;;15.22;46.89
21821;BME280;11073;48.586;12.066;2023-06-14T03:29:28;96008.63;;;15.23;46.61
21821;BME280;11073;48.586;12.066;2023-06-14T03:31:59;96012.44;;;15.22;46.63
21821;BME280;11073;48.586;12.066;2023-06-14T03:34:38;96023.59;;;15.21;46.89
21821;BME280;11073;48.586;12.066;2023-06-14T03:37:11;96021.22;;;15.14;46.76
21821;BME280;11073;48.586;12.066;2023-06-14T03:39:40;96023.66;;;15.15;47.20
21821;BME280;11073;48.586;12.066;2023-06-14T03:42:16;96026.91;;;15.12;47.24
21821;BME280;11073;48.586;12.066;2023-06-14T03:44:47;96030.22;;;15.09;47.27
21821;BME280;11073;48.586;12.066;2023-06-14T03:47:17;96031.59;;;15.02;47.25
21821;BME280;11073;48.586;12.066;2023-06-14T03:49:47;96042.50;;;14.97;47.24
21821;BME280;11073;48.586;12.066;2023-06-14T03:52:16;96040.59;;;14.97;47.06
21821;BME280;11073;48.586;12.066;2023-06-14T03:54:46;96035.97;;;14.93;47.18
21821;BME280;11073;48.586;12.066;2023-06-14T03:57:19;96038.94;;;14.96;47.46
21821;BME280;11073;48.586;12.066;2023-06-14T03:59:50;96044.13;;;15.03;47.24
21821;BME280;11073;48.586;12.066;2023-06-14T04:02:19;96046.84;;;15.03;47.12
21821;BME280;11073;48.586;12.066;2023-06-14T04:04:49;96050.09;;;15.05;47.34
21821;BME280;11073;48.586;12.066;2023-06-14T04:07:19;96052.88;;;15.00;47.12
21821;BME280;11073;48.586;12.066;2023-06-14T04:09:48;96062.38;;;15.02;47.42
21821;BME280;11073;48.586;12.066;2023-06-14T04:12:17;96064.81;;;14.99;47.38
21821;BME280;11073;48.586;12.066;2023-06-14T04:14:46;96064.00;;;14.98;47.54
21821;BME280;11073;48.586;12.066;2023-06-14T04:17:15;96053.97;;;14.94;47.44
21821;BME280;11073;48.586;12.066;2023-06-14T04:19:45;96071.38;;;14.98;47.49
21821;BME280;11073;48.586;12.066;2023-06-14T04:22:16;96071.13;;;14.99;47.27
21821;BME280;11073;48.586;12.066;2023-06-14T04:24:45;96074.66;;;15.00;47.54
21821;BME280;11073;48.586;12.066;2023-06-14T04:27:23;96061.84;;;14.95;47.26
21821;BME280;11073;48.586;12.066;2023-06-14T04:29:54;96066.19;;;15.06;47.28
21821;BME280;11073;48.586;12.066;2023-06-14T04:32:27;96070.28;;;15.09;47.37
21821;BME280;11073;48.586;12.066;2023-06-14T04:34:57;96073.53;;;15.11;47.44
21821;BME280;11073;48.586;12.066;2023-06-14T04:37:28;96075.16;;;15.12;47.19
21821;BME280;11073;48.586;12.066;2023-06-14T04:39:57;96082.81;;;15.15;47.60
21821;BME280;11073;48.586;12.066;2023-06-14T04:42:26;96075.69;;;15.19;47.35
21821;BME280;11073;48.586;12.066;2023-06-14T04:45:00;96080.06;;;15.20;47.45
21821;BME280;11073;48.586;12.066;2023-06-14T04:47:29;96078.94;;;15.26;47.38
21821;BME280;11073;48.586;12.066;2023-06-14T04:49:57;96076.78;;;15.28;47.50
21821;BME280;11073;48.586;12.066;2023-06-14T04:52:31;96081.97;;;15.30;47.47
21821;BME280;11073;48.586;12.066;2023-06-14T04:55:00;96077.84;;;15.32;47.43
21821;BME280;11073;48.586;12.066;2023-06-14T04:57:29;96078.38;;;15.34;47.41
21821;BME280;11073;48.586;12.066;2023-06-14T04:59:59;96086.56;;;15.44;47.68
21821;BME280;11073;48.586;12.066;2023-06-14T05:02:29;96094.16;;;15.48;47.57
21821;BME280;11073;48.586;12.066;2023-06-14T05:04:59;96096.06;;;15.52;47.55
21821;BME280;11073;48.586;12.066;2023-06-14T05:07:30;96091.13;;;15.59;47.44
21821;BME280;11073;48.586;12.066;2023-06-14T05:10:01;96070.94;;;15.55;47.86
21821;BME280;11073;48.586;12.066;2023-06-14T05:12:30;96087.84;;;15.67;47.73
21821;BME280;11073;48.586;12.066;2023-06-14T05:14:58;96089.19;;;15.70;47.89
21821;BME280;11073;48.586;12.066;2023-06-14T05:17:27;96095.75;;;15.74;48.14
21821;BME280;11073;48.586;12.066;2023-06-14T05:19:56;96090.28;;;15.79;48.10
21821;BME280;11073;48.586;12.066;2023-06-14T05:22:25;96082.84;;;15.85;48.09
21821;BME280;11073;48.586;12.066;2023-06-14T05:24:55;96089.94;;;15.91;48.29
21821;BME280;11073;48.586;12.066;2023-06-14T05:27:24;96091.81;;;15.95;48.38
21821;BME280;11073;48.586;12.066;2023-06-14T05:29:53;96096.41;;;16.00;48.45
21821;BME280;11073;48.586;12.066;2023-06-14T05:32:23;96097.53;;;15.99;48.56
21821;BME280;11073;48.586;12.066;2023-06-14T05:34:52;96099.94;;;16.06;48.58
21821;BME280;11073;48.586;12.066;2023-06-14T05:37:21;96099.13;;;16.10;48.67
21821;BME280;11073;48.586;12.066;2023-06-14T05:39:49;96101.25;;;16.18;48.54
21821;BME280;11073;48.586;12.066;2023-06-14T05:42:19;96103.16;;;16.23;48.48
21821;BME280;11073;48.586;12.066;2023-06-14T05:44:48;96095.78;;;16.23;48.24
21821;BME280;11073;48.586;12.066;2023-06-14T05:47:16;96112.88;;;16.34;48.22
21821;BME280;11073;48.586;12.066;2023-06-14T05:49:45;96115.06;;;16.37;47.80
21821;BME280;11073;48.586;12.066;2023-06-14T05:52:14;96110.66;;;16.41;47.72
21821;BME280;11073;48.586;12.066;2023-06-14T05:54:43;96107.38;;;16.44;47.38
21821;BME280;11073;48.586;12.066;2023-06-14T05:57:12;96110.88;;;16.50;46.99
21821;BME280;11073;48.586;12.066;2023-06-14T05:59:42;96113.53;;;16.60;46.62
21821;BME280;11073;48.586;12.066;2023-06-14T06:02:10;96113.50;;;16.70;46.54
21821;BME280;11073;48.586;12.066;2023-06-14T06:04:39;96104.44;;;16.75;46.30
21821;BME280;11073;48.586;12.066;2023-06-14T06:07:08;96110.47;;;16.72;45.96
21821;BME280;11073;48.586;12.066;2023-06-14T06:09:36;96119.44;;;16.77;46.04
21821;BME280;11073;48.586;12.066;2023-06-14T06:12:06;96113.06;;;16.87;45.88
21821;BME280;11073;48.586;12.066;2023-06-14T06:14:35;96113.00;;;16.97;45.57
21821;BME280;11073;48.586;12.066;2023-06-14T06:17:05;96121.41;;;17.06;45.67
21821;BME280;11073;48.586;12.066;2023-06-14T06:19:34;96127.34;;;17.13;45.40
21821;BME280;11073;48.586;12.066;2023-06-14T06:22:03;96126.44;;;17.23;45.48
21821;BME280;11073;48.586;12.066;2023-06-14T06:24:33;96127.19;;;17.28;45.15
21821;BME280;11073;48.586;12.066;2023-06-14T06:27:02;96131.47;;;17.40;45.17
21821;BME280;11073;48.586;12.066;2023-06-14T06:29:31;96133.59;;;17.48;45.28
21821;BME280;11073;48.586;12.066;2023-06-14T06:32:00;96139.88;;;17.48;45.22
21821;BME280;11073;48.586;12.066;2023-06-14T06:34:30;96139.81;;;17.53;45.26
21821;BME280;11073;48.586;12.066;2023-06-14T06:36:59;96150.69;;;17.58;45.33
21821;BME280;11073;48.586;12.066;2023-06-14T06:39:28;96148.69;;;17.69;45.08
21821;BME280;11073;48.586;12.066;2023-06-14T06:41:57;96143.63;;;17.81;45.17
21821;BME280;11073;48.586;12.066;2023-06-14T06:44:32;96143.53;;;17.91;45.17
21821;BME280;11073;48.586;12.066;2023-06-14T06:47:01;96143.63;;;18.05;44.96
21821;BME280;11073;48.586;12.066;2023-06-14T06:49:31;96148.75;;;18.12;44.88
21821;BME280;11073;48.586;12.066;2023-06-14T06:52:01;96140.44;;;18.17;44.87
21821;BME280;11073;48.586;12.066;2023-06-14T06:54:31;96158.69;;;18.27;44.79
21821;BME280;11073;48.586;12.066;2023-06-14T06:57:00;96162.16;;;18.32;44.76
21821;BME280;11073;48.586;12.066;2023-06-14T06:59:30;96162.59;;;18.39;44.58
21821;BME280;11073;48.586;12.066;2023-06-14T07:01:59;96161.69;;;18.49;44.26
21821;BME280;11073;48.586;12.066;2023-06-14T07:04:27;96165.53;;;18.67;44.12
21821;BME280;11073;48.586;12.066;2023-06-14T07:06:57;96164.88;;;18.75;43.86
21821;BME280;11073;48.586;12.066;2023-06-14T07:09:26;96163.31;;;18.88;43.72
21821;BME280;11073;48.586;12.066;2023-06-14T07:11:55;96164.00;;;18.98;43.59
21821;BME280;11073;48.586;12.066;2023-06-14T07:14:23;96153.28;;;18.97;43.50
21821;BME280;11073;48.586;12.066;2023-06-14T07:16:52;96174.78;;;19.09;43.30
21821;BME280;11073;48.586;12.066;2023-06-14T07:19:20;96174.41;;;19.15;43.18
21821;BME280;11073;48.586;12.066;2023-06-14T07:21:49;96169.56;;;19.26;43.43
21821;BME280;11073;48.586;12.066;2023-06-14T07:24:21;96170.09;;;19.28;43.23
21821;BME280;11073;48.586;12.066;2023-06-14T07:26:50;96169.91;;;19.38;43.25
21821;BME280;11073;48.586;12.066;2023-06-14T07:29:18;96180.72;;;19.48;43.37
21821;BME280;11073;48.586;12.066;2023-06-14T07:31:47;96180.25;;;19.60;43.17
21821;BME280;11073;48.586;12.066;2023-06-14T07:34:16;96188.91;;;19.67;42.76
21821;BME280;11073;48.586;12.066;2023-06-14T07:36:44;96182.72;;;19.75;42.59
21821;BME280;11073;48.586;12.066;2023-06-14T07:39:14;96186.59;;;19.88;42.62
21821;BME280;11073;48.586;12.066;2023-06-14T07:41:43;96191.88;;;19.98;42.07
21821;BME280;11073;48.586;12.066;2023-06-14T07:44:12;96194.22;;;20.05;41.86
21821;BME280;11073;48.586;12.066;2023-06-14T07:46:40;96184.66;;;20.16;42.17
21821;BME280;11073;48.586;12.066;2023-06-14T07:49:09;96188.31;;;20.25;41.89
21821;BME280;11073;48.586;12.066;2023-06-14T07:51:38;96193.81;;;20.39;41.62
21821;BME280;11073;48.586;12.066;2023-06-14T07:54:07;96197.88;;;20.42;41.64
21821;BME280;11073;48.586;12.066;2023-06-14T07:56:36;96191.97;;;20.34;41.21
21821;BME280;11073;48.586;12.066;2023-06-14T07:59:06;96193.00;;;20.38;41.32
21821;BME280;11073;48.586;12.066;2023-06-14T08:01:35;96190.75;;;20.41;41.25
21821;BME280;11073;48.586;12.066;2023-06-14T08:04:04;96197.00;;;20.46;41.16
21821;BME280;11073;48.586;12.066;2023-06-14T08:06:33;96197.50;;;20.48;40.94
21821;BME280;11073;48.586;12.066;2023-06-14T08:09:01;96190.78;;;20.54;41.20
21821;BME280;11073;48.586;12.066;2023-06-14T08:11:31;96192.47;;;20.64;41.04
21821;BME280;11073;48.586;12.066;2023-06-14T08:14:03;96194.81;;;20.71;40.78
21821;BME280;11073;48.586;12.066;2023-06-14T08:16:33;96204.81;;;20.67;40.58
21821;BME280;11073;48.586;12.066;2023-06-14T08:19:02;96202.38;;;20.65;40.52
21821;BME280;11073;48.586;12.066;2023-06-14T08:21:32;96204.16;;;20.83;40.30
21821;BME280;11073;48.586;12.066;2023-06-14T08:24:00;96175.84;;;20.83;40.44
21821;BME280;11073;48.586;12.066;2023-06-14T08:26:29;96209.16;;;21.17;40.07
21821;BME280;11073;48.586;12.066;2023-06-14T08:28:59;96215.03;;;21.25;40.00
21821;BME280;11073;48.586;12.066;2023-06-14T08:31:28;96209.66;;;21.42;40.07
21821;BME280;11073;48.586;12.066;2023-06-14T08:34:00;96215.75;;;21.53;39.41
21821;BME280;11073;48.586;12.066;2023-06-14T08:36:34;96220.13;;;21.54;39.03
21821;BME280;11073;48.586;12.066;2023-06-14T08:39:03;96227.13;;;21.60;38.89
21821;BME280;11073;48.586;12.066;2023-06-14T08:41:32;96224.00;;;21.75;39.26
21821;BME280;11073;48.586;12.066;2023-06-14T08:44:01;96220.19;;;21.93;39.13
21821;BME280;11073;48.586;12.066;2023-06-14T08:46:32;96228.69;;;22.06;38.90
21821;BME280;11073;48.586;12.066;2023-06-14T08:49:03;96213.22;;;22.18;38.39
21821;BME280;11073;48.586;12.066;2023-06-14T08:51:35;96226.09;;;22.32;38.03
21821;BME280;11073;48.586;12.066;2023-06-14T08:54:04;96233.09;;;22.46;38.21
21821;BME280;11073;48.586;12.066;2023-06-14T08:56:37;96227.94;;;22.53;37.40
21821;BME280;11073;48.586;12.066;2023-06-14T08:59:09;96229.72;;;22.58;37.41
21821;BME280;11073;48.586;12.066;2023-06-14T09:01:38;96233.47;;;22.71;37.21
21821;BME280;11073;48.586;12.066;2023-06-14T09:04:19;96230.13;;;22.82;36.63
21821;BME280;11073;48.586;12.066;2023-06-14T09:06:49;96233.25;;;22.90;36.39
21821;BME280;11073;48.586;12.066;2023-06-14T09:09:20;96238.75;;;22.98;35.78
21821;BME280;11073;48.586;12.066;2023-06-14T09:11:50;96233.56;;;23.14;35.94
21821;BME280;11073;48.586;12.066;2023-06-14T09:14:19;96236.34;;;23.23;35.65
21821;BME280;11073;48.586;12.066;2023-06-14T09:16:48;96230.97;;;23.35;35.30
21821;BME280;11073;48.586;12.066;2023-06-14T09:19:23;96242.19;;;23.64;35.44
21821;BME280;11073;48.586;12.066;2023-06-14T09:21:52;96243.28;;;23.89;35.37
21821;BME280;11073;48.586;12.066;2023-06-14T09:24:24;96239.34;;;24.08;34.84
21821;BME280;11073;48.586;12.066;2023-06-14T09:26:53;96243.34;;;24.19;34.31
21821;BME280;11073;48.586;12.066;2023-06-14T09:29:22;96250.34;;;24.34;33.63
21821;BME280;11073;48.586;12.066;2023-06-14T09:31:51;96247.69;;;24.46;33.48
21821;BME280;11073;48.586;12.066;2023-06-14T09:34:22;96248.59;;;24.59;33.24
21821;BME280;11073;48.586;12.066;2023-06-14T09:36:51;96245.78;;;24.67;33.01
21821;BME280;11073;48.586;12.066;2023-06-14T09:39:20;96240.00;;;24.81;32.72
21821;BME280;11073;48.586;12.066;2023-06-14T09:41:49;96245.28;;;24.74;31.99
21821;BME280;11073;48.586;12.066;2023-06-14T09:44:17;96243.53;;;24.61;31.69
21821;BME280;11073;48.586;12.066;2023-06-14T09:46:48;96249.75;;;24.87;31.60
21821;BME280;11073;48.586;12.066;2023-06-14T09:49:17;96241.25;;;25.22;31.62
21821;BME280;11073;48.586;12.066;2023-06-14T09:51:50;96246.97;;;25.58;31.48
21821;BME280;11073;48.586;12.066;2023-06-14T09:54:22;96251.22;;;25.56;30.83
21821;BME280;11073;48.586;12.066;2023-06-14T09:56:51;96258.94;;;25.71;30.72
21821;BME280;11073;48.586;12.066;2023-06-14T09:59:22;96244.63;;;26.02;30.42
21821;BME280;11073;48.586;12.066;2023-06-14T10:01:57;96246.69;;;26.05;29.88
21821;BME280;11073;48.586;12.066;2023-06-14T10:04:27;96256.31;;;26.20;29.64
21821;BME280;11073;48.586;12.066;2023-06-14T10:07:00;96244.38;;;26.53;29.43
21821;BME280;11073;48.586;12.066;2023-06-14T10:09:30;96249.00;;;26.85;29.15
21821;BME280;11073;48.586;12.066;2023-06-14T10:12:00;96245.31;;;26.81;28.85
21821;BME280;11073;48.586;12.066;2023-06-14T10:14:30;96247.03;;;26.98;28.37
21821;BME280;11073;48.586;12.066;2023-06-14T10:17:04;96248.09;;;26.81;28.55
21821;BME280;11073;48.586;12.066;2023-06-14T10:19:42;96246.44;;;26.92;28.47
21821;BME280;11073;48.586;12.066;2023-06-14T10:22:17;96254.41;;;26.94;27.99
21821;BME280;11073;48.586;12.066;2023-06-14T10:24:47;96247.72;;;26.95;27.78
21821;BME280;11073;48.586;12.066;2023-06-14T10:27:17;96250.38;;;27.04;27.49
21821;BME280;11073;48.586;12.066;2023-06-14T10:30:06;96246.69;;;27.24;27.42
21821;BME280;11073;48.586;12.066;2023-06-14T10:33:04;96250.03;;;27.70;26.97
21821;BME280;11073;48.586;12.066;2023-06-14T10:35:34;96247.81;;;27.63;27.02
21821;BME280;11073;48.586;12.066;2023-06-14T10:38:08;96244.72;;;27.93;26.65
21821;BME280;11073;48.586;12.066;2023-06-14T10:40:38;96242.50;;;28.14;26.30
21821;BME280;11073;48.586;12.066;2023-06-14T10:43:24;96241.88;;;28.05;25.98
21821;BME280;11073;48.586;12.066;2023-06-14T10:46:14;96237.69;;;28.27;25.69
21821;BME280;11073;48.586;12.066;2023-06-14T10:48:43;96230.78;;;28.37;25.21
21821;BME280;11073;48.586;12.066;2023-06-14T10:51:18;96237.88;;;28.66;25.10
21821;BME280;11073;48.586;12.066;2023-06-14T10:53:49;96244.38;;;28.54;24.29
21821;BME280;11073;48.586;12.066;2023-06-14T10:56:28;96227.59;;;28.07;24.64
21821;BME280;11073;48.586;12.066;2023-06-14T10:58:58;96228.63;;;28.46;24.37
21821;BME280;11073;48.586;12.066;2023-06-14T11:01:35;96231.66;;;28.88;24.52
21821;BME280;11073;48.586;12.066;2023-06-14T11:04:08;96227.53;;;29.14;24.41
21821;BME280;11073;48.586;12.066;2023-06-14T11:06:47;96231.97;;;29.34;23.85
21821;BME280;11073;48.586;12.066;2023-06-14T11:12:19;96223.63;;;29.18;23.64
21821;BME280;11073;48.586;12.066;2023-06-14T11:14:49;96223.59;;;28.83;23.23
21821;BME280;11073;48.586;12.066;2023-06-14T11:17:18;96212.97;;;29.04;23.43
21821;BME280;11073;48.586;12.066;2023-06-14T11:19:47;96223.72;;;29.22;23.60
21821;BME280;11073;48.586;12.066;2023-06-14T11:22:16;96222.06;;;29.01;23.61
21821;BME280;11073;48.586;12.066;2023-06-14T11:24:47;96221.69;;;29.03;23.30
21821;BME280;11073;48.586;12.066;2023-06-14T11:27:15;96220.94;;;29.22;22.90
21821;BME280;11073;48.586;12.066;2023-06-14T11:29:47;96220.41;;;29.51;22.83
21821;BME280;11073;48.586;12.066;2023-06-14T11:32:16;96219.28;;;29.75;22.77
21821;BME280;11073;48.586;12.066;2023-06-14T11:34:46;96211.78;;;30.41;22.64
21821;BME280;11073;48.586;12.066;2023-06-14T11:37:15;96218.53;;;30.86;22.02
21821;BME280;11073;48.586;12.066;2023-06-14T11:39:43;96211.66;;;30.57;21.39
21821;BME280;11073;48.586;12.066;2023-06-14T11:42:15;96212.19;;;30.20;21.82
21821;BME280;11073;48.586;12.066;2023-06-14T11:44:45;96212.81;;;29.90;21.76
21821;BME280;11073;48.586;12.066;2023-06-14T11:47:14;96221.69;;;29.77;21.62
21821;BME280;11073;48.586;12.066;2023-06-14T11:49:43;96209.59;;;29.50;21.79
21821;BME280;11073;48.586;12.066;2023-06-14T11:52:12;96207.16;;;28.94;22.06
21821;BME280;11073;48.586;12.066;2023-06-14T11:54:41;96206.47;;;28.65;22.86
21821;BME280;11073;48.586;12.066;2023-06-14T11:57:10;96204.22;;;28.55;23.13
21821;BME280;11073;48.586;12.066;2023-06-14T11:59:40;96199.53;;;28.59;23.12
21821;BME280;11073;48.586;12.066;2023-06-14T12:02:13;96203.72;;;29.35;23.12
21821;BME280;11073;48.586;12.066;2023-06-14T12:04:43;96193.66;;;29.31;22.82
21821;BME280;11073;48.586;12.066;2023-06-14T12:07:13;96196.97;;;29.01;22.62
21821;BME280;11073;48.586;12.066;2023-06-14T12:10:03;96200.00;;;28.61;23.06
21821;BME280;11073;48.586;12.066;2023-06-14T12:12:36;96202.25;;;28.40;23.16
21821;BME280;11073;48.586;12.066;2023-06-14T12:15:08;96187.84;;;28.22;23.23
21821;BME280;11073;48.586;12.066;2023-06-14T12:17:39;96202.50;;;28.19;23.16
21821;BME280;11073;48.586;12.066;2023-06-14T12:20:10;96194.22;;;28.07;23.25
21821;BME280;11073;48.586;12.066;2023-06-14T12:22:50;96194.03;;;27.99;23.62
21821;BME280;11073;48.586;12.066;2023-06-14T12:25:27;96188.41;;;27.68;23.88
21821;BME280;11073;48.586;12.066;2023-06-14T12:27:58;96186.06;;;27.42;23.82
21821;BME280;11073;48.586;12.066;2023-06-14T12:30:28;96181.41;;;27.06;23.96
21821;BME280;11073;48.586;12.066;2023-06-14T12:32:57;96180.88;;;26.88;24.41
21821;BME280;11073;48.586;12.066;2023-06-14T12:35:26;96181.09;;;26.95;24.56
21821;BME280;11073;48.586;12.066;2023-06-14T12:37:55;96173.50;;;27.20;24.84
21821;BME280;11073;48.586;12.066;2023-06-14T12:40:23;96168.75;;;27.20;24.79
21821;BME280;11073;48.586;12.066;2023-06-14T12:42:53;96192.25;;;27.51;24.90
21821;BME280;11073;48.586;12.066;2023-06-14T12:45:22;96193.97;;;27.68;24.46
21821;BME280;11073;48.586;12.066;2023-06-14T12:47:52;96198.09;;;27.74;24.53
21821;BME280;11073;48.586;12.066;2023-06-14T12:50:21;96192.81;;;27.69;24.61
21821;BME280;11073;48.586;12.066;2023-06-14T12:52:53;96200.28;;;27.53;24.88
21821;BME280;11073;48.586;12.066;2023-06-14T12:55:21;96200.28;;;27.53;25.28
21821;BME280;11073;48.586;12.066;2023-06-14T12:57:49;96200.47;;;27.32;25.39
21821;BME280;11073;48.586;12.066;2023-06-14T13:00:19;96200.56;;;27.23;25.42
21821;BME280;11073;48.586;12.066;2023-06-14T13:02:49;96196.69;;;27.12;25.56
21821;BME280;11073;48.586;12.066;2023-06-14T13:05:20;96201.56;;;26.90;26.09
21821;BME280;11073;48.586;12.066;2023-06-14T13:07:48;96203.09;;;26.76;26.18
21821;BME280;11073;48.586;12.066;2023-06-14T13:10:17;96195.78;;;26.71;26.26